sensor_id;sensor_type;location;lat;lon;timestamp;P1;durP1;ratioP1;P2;durP2;ratioP2
59458;SDS011;45269;43.568;22.244;2022-09-27T00:00:34;32.22;;;28.92;;
59458;SDS011;45269;43.568;22.244;2022-09-27T00:02:59;31.38;;;25.25;;
59458;SDS011;45269;43.568;22.244;2022-09-27T00:05:26;19.85;;;16.52;;
59458;SDS011;45269;43.568;22.244;2022-09-27T00:07:51;20.13;;;17.00;;
59458;SDS011;45269;43.568;22.244;2022-09-27T00:10:16;19.98;;;17.02;;
59458;SDS011;45269;43.568;22.244;2022-09-27T00:12:42;24.40;;;19.42;;
59458;SDS011;45269;43.568;22.244;2022-09-27T00:15:07;18.80;;;15.85;;
59458;SDS011;45269;43.568;22.244;2022-09-27T00:17:34;24.42;;;18.45;;
59458;SDS011;45269;43.568;22.244;2022-09-27T00:19:59;35.75;;;27.40;;
59458;SDS011;45269;43.568;22.244;2022-09-27T00:22:25;38.38;;;27.48;;
59458;SDS011;45269;43.568;22.244;2022-09-27T00:24:50;28.65;;;21.70;;
59458;SDS011;45269;43.568;22.244;2022-09-27T00:27:16;26.35;;;21.20;;
59458;SDS011;45269;43.568;22.244;2022-09-27T00:29:42;50.10;;;36.70;;
59458;SDS011;45269;43.568;22.244;2022-09-27T00:32:08;41.60;;;32.20;;
59458;SDS011;45269;43.568;22.244;2022-09-27T00:34:33;25.27;;;19.52;;
59458;SDS011;45269;43.568;22.244;2022-09-27T00:36:58;24.70;;;18.15;;
59458;SDS011;45269;43.568;22.244;2022-09-27T00:39:24;16.60;;;13.63;;
59458;SDS011;45269;43.568;22.244;2022-09-27T00:41:49;15.75;;;14.15;;
59458;SDS011;45269;43.568;22.244;2022-09-27T00:46:50;27.70;;;23.38;;
59458;SDS011;45269;43.568;22.244;2022-09-27T00:49:30;14.88;;;13.27;;
59458;SDS011;45269;43.568;22.244;2022-09-27T00:51:58;11.20;;;10.00;;
59458;SDS011;45269;43.568;22.244;2022-09-27T00:54:25;20.90;;;12.95;;
59458;SDS011;45269;43.568;22.244;2022-09-27T00:56:53;15.07;;;12.75;;
59458;SDS011;45269;43.568;22.244;2022-09-27T00:59:21;15.30;;;13.70;;
59458;SDS011;45269;43.568;22.244;2022-09-27T01:01:49;13.90;;;12.10;;
59458;SDS011;45269;43.568;22.244;2022-09-27T01:04:15;25.02;;;21.63;;
59458;SDS011;45269;43.568;22.244;2022-09-27T01:06:42;25.38;;;21.83;;
59458;SDS011;45269;43.568;22.244;2022-09-27T01:09:08;23.40;;;19.48;;
59458;SDS011;45269;43.568;22.244;2022-09-27T01:32:14;19.85;;;17.85;;
59458;SDS011;45269;43.568;22.244;2022-09-27T01:45:16;8.93;;;8.23;;
59458;SDS011;45269;43.568;22.244;2022-09-27T01:47:47;8.30;;;7.57;;
59458;SDS011;45269;43.568;22.244;2022-09-27T01:50:21;7.72;;;7.13;;
59458;SDS011;45269;43.568;22.244;2022-09-27T01:53:11;8.27;;;7.55;;
59458;SDS011;45269;43.568;22.244;2022-09-27T01:55:35;7.60;;;7.00;;
59458;SDS011;45269;43.568;22.244;2022-09-27T01:58:04;8.38;;;7.63;;
59458;SDS011;45269;43.568;22.244;2022-09-27T02:00:31;8.85;;;8.05;;
59458;SDS011;45269;43.568;22.244;2022-09-27T02:03:03;8.02;;;7.40;;
59458;SDS011;45269;43.568;22.244;2022-09-27T02:05:36;15.57;;;13.82;;
59458;SDS011;45269;43.568;22.244;2022-09-27T02:08:05;15.57;;;13.30;;
59458;SDS011;45269;43.568;22.244;2022-09-27T02:10:37;10.50;;;9.60;;
59458;SDS011;45269;43.568;22.244;2022-09-27T02:15:29;8.77;;;7.97;;
59458;SDS011;45269;43.568;22.244;2022-09-27T02:18:00;8.57;;;7.85;;
59458;SDS011;45269;43.568;22.244;2022-09-27T02:28:11;10.43;;;8.63;;
59458;SDS011;45269;43.568;22.244;2022-09-27T02:30:39;24.42;;;20.60;;
59458;SDS011;45269;43.568;22.244;2022-09-27T02:33:05;23.15;;;19.48;;
59458;SDS011;45269;43.568;22.244;2022-09-27T02:35:31;13.93;;;12.40;;
59458;SDS011;45269;43.568;22.244;2022-09-27T02:37:56;11.57;;;10.43;;
59458;SDS011;45269;43.568;22.244;2022-09-27T02:40:23;10.43;;;9.52;;
59458;SDS011;45269;43.568;22.244;2022-09-27T02:42:48;10.65;;;9.55;;
59458;SDS011;45269;43.568;22.244;2022-09-27T02:45:15;10.02;;;9.05;;
59458;SDS011;45269;43.568;22.244;2022-09-27T02:55:48;21.50;;;18.92;;
59458;SDS011;45269;43.568;22.244;2022-09-27T03:00:40;23.75;;;19.95;;
59458;SDS011;45269;43.568;22.244;2022-09-27T03:05:42;9.18;;;8.38;;
59458;SDS011;45269;43.568;22.244;2022-09-27T03:08:08;9.50;;;8.60;;
59458;SDS011;45269;43.568;22.244;2022-09-27T03:10:34;9.55;;;8.63;;
59458;SDS011;45269;43.568;22.244;2022-09-27T03:12:59;9.15;;;8.35;;
59458;SDS011;45269;43.568;22.244;2022-09-27T03:15:24;14.82;;;13.32;;
59458;SDS011;45269;43.568;22.244;2022-09-27T03:17:50;15.15;;;13.57;;
59458;SDS011;45269;43.568;22.244;2022-09-27T03:20:15;12.48;;;10.73;;
59458;SDS011;45269;43.568;22.244;2022-09-27T03:22:42;17.60;;;15.57;;
59458;SDS011;45269;43.568;22.244;2022-09-27T03:25:07;19.52;;;17.63;;
59458;SDS011;45269;43.568;22.244;2022-09-27T03:27:33;18.25;;;16.25;;
59458;SDS011;45269;43.568;22.244;2022-09-27T03:29:58;13.90;;;12.50;;
59458;SDS011;45269;43.568;22.244;2022-09-27T03:32:24;9.52;;;8.55;;
59458;SDS011;45269;43.568;22.244;2022-09-27T03:34:49;9.30;;;8.50;;
59458;SDS011;45269;43.568;22.244;2022-09-27T03:37:15;8.05;;;7.18;;
59458;SDS011;45269;43.568;22.244;2022-09-27T03:39:40;8.27;;;7.57;;
59458;SDS011;45269;43.568;22.244;2022-09-27T03:42:06;7.68;;;6.97;;
59458;SDS011;45269;43.568;22.244;2022-09-27T03:44:31;8.23;;;7.53;;
59458;SDS011;45269;43.568;22.244;2022-09-27T03:46:57;7.90;;;7.30;;
59458;SDS011;45269;43.568;22.244;2022-09-27T03:49:22;8.32;;;7.63;;
59458;SDS011;45269;43.568;22.244;2022-09-27T03:51:48;11.35;;;10.27;;
59458;SDS011;45269;43.568;22.244;2022-09-27T03:54:13;11.25;;;10.25;;
59458;SDS011;45269;43.568;22.244;2022-09-27T03:56:39;12.93;;;11.63;;
59458;SDS011;45269;43.568;22.244;2022-09-27T03:59:04;14.98;;;13.57;;
59458;SDS011;45269;43.568;22.244;2022-09-27T04:01:30;15.32;;;13.80;;
59458;SDS011;45269;43.568;22.244;2022-09-27T04:03:55;22.08;;;19.90;;
59458;SDS011;45269;43.568;22.244;2022-09-27T04:06:20;15.98;;;14.48;;
59458;SDS011;45269;43.568;22.244;2022-09-27T04:08:47;16.25;;;14.85;;
59458;SDS011;45269;43.568;22.244;2022-09-27T04:11:12;15.68;;;14.13;;
59458;SDS011;45269;43.568;22.244;2022-09-27T04:13:39;15.50;;;14.20;;
59458;SDS011;45269;43.568;22.244;2022-09-27T04:16:04;26.70;;;23.70;;
59458;SDS011;45269;43.568;22.244;2022-09-27T04:18:30;32.35;;;28.10;;
59458;SDS011;45269;43.568;22.244;2022-09-27T04:20:55;28.80;;;24.73;;
59458;SDS011;45269;43.568;22.244;2022-09-27T04:23:21;28.45;;;25.58;;
59458;SDS011;45269;43.568;22.244;2022-09-27T04:25:47;22.98;;;20.67;;
59458;SDS011;45269;43.568;22.244;2022-09-27T04:28:12;22.85;;;20.02;;
59458;SDS011;45269;43.568;22.244;2022-09-27T04:30:37;14.68;;;13.25;;
59458;SDS011;45269;43.568;22.244;2022-09-27T04:33:03;15.40;;;13.90;;
59458;SDS011;45269;43.568;22.244;2022-09-27T04:35:28;15.50;;;14.00;;
59458;SDS011;45269;43.568;22.244;2022-09-27T04:38:12;14.68;;;13.30;;
59458;SDS011;45269;43.568;22.244;2022-09-27T04:40:38;12.60;;;10.23;;
59458;SDS011;45269;43.568;22.244;2022-09-27T04:43:04;11.75;;;10.65;;
59458;SDS011;45269;43.568;22.244;2022-09-27T04:45:29;10.20;;;9.40;;
59458;SDS011;45269;43.568;22.244;2022-09-27T04:47:55;9.30;;;8.30;;
59458;SDS011;45269;43.568;22.244;2022-09-27T04:50:21;10.85;;;9.75;;
59458;SDS011;45269;43.568;22.244;2022-09-27T04:52:50;10.10;;;9.20;;
59458;SDS011;45269;43.568;22.244;2022-09-27T04:55:16;10.80;;;9.80;;
59458;SDS011;45269;43.568;22.244;2022-09-27T04:57:41;12.57;;;11.48;;
59458;SDS011;45269;43.568;22.244;2022-09-27T05:00:07;13.32;;;11.00;;
59458;SDS011;45269;43.568;22.244;2022-09-27T05:02:33;13.70;;;12.40;;
59458;SDS011;45269;43.568;22.244;2022-09-27T05:04:58;13.32;;;12.07;;
59458;SDS011;45269;43.568;22.244;2022-09-27T05:07:25;16.42;;;14.80;;
59458;SDS011;45269;43.568;22.244;2022-09-27T05:09:50;17.95;;;16.08;;
59458;SDS011;45269;43.568;22.244;2022-09-27T05:12:15;29.40;;;24.25;;
59458;SDS011;45269;43.568;22.244;2022-09-27T05:14:41;27.40;;;24.55;;
59458;SDS011;45269;43.568;22.244;2022-09-27T05:17:06;36.20;;;31.45;;
59458;SDS011;45269;43.568;22.244;2022-09-27T05:19:32;31.55;;;24.38;;
59458;SDS011;45269;43.568;22.244;2022-09-27T05:21:58;44.63;;;37.05;;
59458;SDS011;45269;43.568;22.244;2022-09-27T05:24:23;31.92;;;27.10;;
59458;SDS011;45269;43.568;22.244;2022-09-27T05:26:48;19.20;;;17.25;;
59458;SDS011;45269;43.568;22.244;2022-09-27T05:29:14;17.20;;;14.95;;
59458;SDS011;45269;43.568;22.244;2022-09-27T05:31:41;14.73;;;13.32;;
59458;SDS011;45269;43.568;22.244;2022-09-27T05:34:06;17.52;;;15.82;;
59458;SDS011;45269;43.568;22.244;2022-09-27T05:36:33;15.80;;;14.30;;
59458;SDS011;45269;43.568;22.244;2022-09-27T05:38:58;17.33;;;15.55;;
59458;SDS011;45269;43.568;22.244;2022-09-27T05:41:24;19.98;;;15.50;;
59458;SDS011;45269;43.568;22.244;2022-09-27T05:43:50;15.50;;;12.55;;
59458;SDS011;45269;43.568;22.244;2022-09-27T05:46:16;13.73;;;11.70;;
59458;SDS011;45269;43.568;22.244;2022-09-27T05:48:42;20.50;;;18.38;;
59458;SDS011;45269;43.568;22.244;2022-09-27T05:51:07;21.30;;;19.30;;
59458;SDS011;45269;43.568;22.244;2022-09-27T05:53:32;17.25;;;15.55;;
59458;SDS011;45269;43.568;22.244;2022-09-27T05:56:02;15.15;;;13.68;;
59458;SDS011;45269;43.568;22.244;2022-09-27T05:58:28;15.13;;;13.73;;
59458;SDS011;45269;43.568;22.244;2022-09-27T06:00:53;13.82;;;12.52;;
59458;SDS011;45269;43.568;22.244;2022-09-27T06:03:19;16.02;;;14.20;;
59458;SDS011;45269;43.568;22.244;2022-09-27T06:05:44;12.80;;;11.70;;
59458;SDS011;45269;43.568;22.244;2022-09-27T06:08:11;12.57;;;10.82;;
59458;SDS011;45269;43.568;22.244;2022-09-27T06:10:36;13.15;;;10.93;;
59458;SDS011;45269;43.568;22.244;2022-09-27T06:13:03;11.32;;;10.23;;
59458;SDS011;45269;43.568;22.244;2022-09-27T06:15:30;12.52;;;11.43;;
59458;SDS011;45269;43.568;22.244;2022-09-27T06:17:56;14.20;;;12.88;;
59458;SDS011;45269;43.568;22.244;2022-09-27T06:20:22;15.82;;;14.23;;
59458;SDS011;45269;43.568;22.244;2022-09-27T06:22:47;14.85;;;13.35;;
59458;SDS011;45269;43.568;22.244;2022-09-27T06:25:13;12.98;;;11.68;;
59458;SDS011;45269;43.568;22.244;2022-09-27T06:27:38;11.32;;;10.32;;
59458;SDS011;45269;43.568;22.244;2022-09-27T06:30:04;31.10;;;23.13;;
59458;SDS011;45269;43.568;22.244;2022-09-27T06:32:29;145.63;;;98.85;;
59458;SDS011;45269;43.568;22.244;2022-09-27T06:34:55;80.82;;;62.17;;
59458;SDS011;45269;43.568;22.244;2022-09-27T06:37:24;69.90;;;52.85;;
59458;SDS011;45269;43.568;22.244;2022-09-27T06:39:50;69.30;;;52.58;;
59458;SDS011;45269;43.568;22.244;2022-09-27T06:42:17;50.72;;;40.65;;
59458;SDS011;45269;43.568;22.244;2022-09-27T06:44:42;55.47;;;41.50;;
59458;SDS011;45269;43.568;22.244;2022-09-27T06:47:08;34.63;;;24.85;;
59458;SDS011;45269;43.568;22.244;2022-09-27T06:49:33;34.55;;;30.80;;
59458;SDS011;45269;43.568;22.244;2022-09-27T06:51:58;39.30;;;31.52;;
59458;SDS011;45269;43.568;22.244;2022-09-27T06:54:25;33.88;;;30.33;;
59458;SDS011;45269;43.568;22.244;2022-09-27T06:56:51;34.70;;;28.88;;
59458;SDS011;45269;43.568;22.244;2022-09-27T06:59:16;50.53;;;45.05;;
59458;SDS011;45269;43.568;22.244;2022-09-27T07:02:01;66.10;;;52.35;;
59458;SDS011;45269;43.568;22.244;2022-09-27T07:04:27;65.35;;;51.17;;
59458;SDS011;45269;43.568;22.244;2022-09-27T07:06:52;127.55;;;109.53;;
59458;SDS011;45269;43.568;22.244;2022-09-27T07:09:18;91.25;;;74.78;;
59458;SDS011;45269;43.568;22.244;2022-09-27T07:11:43;51.10;;;41.70;;
59458;SDS011;45269;43.568;22.244;2022-09-27T07:14:10;101.97;;;69.72;;
59458;SDS011;45269;43.568;22.244;2022-09-27T07:16:36;87.40;;;62.95;;
59458;SDS011;45269;43.568;22.244;2022-09-27T07:19:01;72.57;;;57.67;;
59458;SDS011;45269;43.568;22.244;2022-09-27T07:21:27;128.60;;;76.05;;
59458;SDS011;45269;43.568;22.244;2022-09-27T07:23:52;128.75;;;72.53;;
59458;SDS011;45269;43.568;22.244;2022-09-27T07:26:18;203.68;;;104.45;;
59458;SDS011;45269;43.568;22.244;2022-09-27T07:28:43;161.20;;;85.25;;
59458;SDS011;45269;43.568;22.244;2022-09-27T07:31:10;135.27;;;75.85;;
59458;SDS011;45269;43.568;22.244;2022-09-27T07:33:36;71.13;;;46.35;;
59458;SDS011;45269;43.568;22.244;2022-09-27T07:36:08;62.45;;;45.35;;
59458;SDS011;45269;43.568;22.244;2022-09-27T07:38:34;54.88;;;40.70;;
59458;SDS011;45269;43.568;22.244;2022-09-27T07:41:07;53.97;;;41.15;;
59458;SDS011;45269;43.568;22.244;2022-09-27T07:43:33;46.80;;;39.13;;
59458;SDS011;45269;43.568;22.244;2022-09-27T07:45:58;47.15;;;39.85;;
59458;SDS011;45269;43.568;22.244;2022-09-27T07:48:23;48.25;;;42.72;;
59458;SDS011;45269;43.568;22.244;2022-09-27T07:50:49;56.95;;;45.15;;
59458;SDS011;45269;43.568;22.244;2022-09-27T07:53:14;49.55;;;43.28;;
59458;SDS011;45269;43.568;22.244;2022-09-27T07:55:40;73.82;;;56.90;;
59458;SDS011;45269;43.568;22.244;2022-09-27T07:58:07;178.00;;;120.20;;
59458;SDS011;45269;43.568;22.244;2022-09-27T08:00:33;265.10;;;185.63;;
59458;SDS011;45269;43.568;22.244;2022-09-27T08:03:02;565.17;;;460.42;;
59458;SDS011;45269;43.568;22.244;2022-09-27T08:05:28;314.70;;;235.63;;
59458;SDS011;45269;43.568;22.244;2022-09-27T08:07:54;185.20;;;142.63;;
59458;SDS011;45269;43.568;22.244;2022-09-27T08:10:20;82.47;;;70.15;;
59458;SDS011;45269;43.568;22.244;2022-09-27T08:12:45;50.03;;;45.03;;
59458;SDS011;45269;43.568;22.244;2022-09-27T08:15:11;67.43;;;60.05;;
59458;SDS011;45269;43.568;22.244;2022-09-27T08:17:36;78.22;;;69.13;;
59458;SDS011;45269;43.568;22.244;2022-09-27T08:20:02;79.40;;;68.07;;
59458;SDS011;45269;43.568;22.244;2022-09-27T08:22:30;84.70;;;72.90;;
59458;SDS011;45269;43.568;22.244;2022-09-27T08:24:56;61.50;;;54.95;;
59458;SDS011;45269;43.568;22.244;2022-09-27T08:27:21;42.33;;;38.00;;
59458;SDS011;45269;43.568;22.244;2022-09-27T08:29:46;46.28;;;40.78;;
59458;SDS011;45269;43.568;22.244;2022-09-27T08:32:12;45.28;;;37.47;;
59458;SDS011;45269;43.568;22.244;2022-09-27T08:34:38;37.67;;;31.63;;
59458;SDS011;45269;43.568;22.244;2022-09-27T08:37:03;24.05;;;21.45;;
59458;SDS011;45269;43.568;22.244;2022-09-27T08:39:28;22.13;;;19.85;;
59458;SDS011;45269;43.568;22.244;2022-09-27T08:52:29;21.48;;;19.23;;
59458;SDS011;45269;43.568;22.244;2022-09-27T08:54:55;31.15;;;27.38;;
59458;SDS011;45269;43.568;22.244;2022-09-27T08:57:23;31.70;;;28.35;;
59458;SDS011;45269;43.568;22.244;2022-09-27T09:00:09;22.67;;;20.38;;
59458;SDS011;45269;43.568;22.244;2022-09-27T09:02:35;17.70;;;15.88;;
59458;SDS011;45269;43.568;22.244;2022-09-27T09:05:08;14.23;;;12.80;;
59458;SDS011;45269;43.568;22.244;2022-09-27T09:20:23;12.57;;;11.13;;
59458;SDS011;45269;43.568;22.244;2022-09-27T09:28:01;18.33;;;13.55;;
59458;SDS011;45269;43.568;22.244;2022-09-27T09:30:40;17.38;;;13.05;;
59458;SDS011;45269;43.568;22.244;2022-09-27T09:38:05;18.90;;;16.87;;
59458;SDS011;45269;43.568;22.244;2022-09-27T09:40:37;8.70;;;7.72;;
59458;SDS011;45269;43.568;22.244;2022-09-27T09:46:32;11.27;;;9.68;;
59458;SDS011;45269;43.568;22.244;2022-09-27T09:48:45;10.60;;;9.17;;
59458;SDS011;45269;43.568;22.244;2022-09-27T09:51:17;16.67;;;13.27;;
59458;SDS011;45269;43.568;22.244;2022-09-27T09:53:47;11.32;;;7.90;;
59458;SDS011;45269;43.568;22.244;2022-09-27T09:56:16;14.07;;;9.43;;
59458;SDS011;45269;43.568;22.244;2022-09-27T09:58:52;6.45;;;5.63;;
59458;SDS011;45269;43.568;22.244;2022-09-27T10:03:53;13.30;;;11.13;;
59458;SDS011;45269;43.568;22.244;2022-09-27T10:06:19;6.63;;;5.78;;
59458;SDS011;45269;43.568;22.244;2022-09-27T10:08:44;5.10;;;4.38;;
59458;SDS011;45269;43.568;22.244;2022-09-27T10:11:18;8.07;;;5.50;;
59458;SDS011;45269;43.568;22.244;2022-09-27T10:13:44;11.70;;;10.27;;
59458;SDS011;45269;43.568;22.244;2022-09-27T10:16:11;12.27;;;10.63;;
59458;SDS011;45269;43.568;22.244;2022-09-27T10:18:38;8.60;;;7.80;;
59458;SDS011;45269;43.568;22.244;2022-09-27T10:21:06;13.02;;;11.18;;
59458;SDS011;45269;43.568;22.244;2022-09-27T10:23:32;10.50;;;7.90;;
59458;SDS011;45269;43.568;22.244;2022-09-27T10:25:58;10.82;;;7.03;;
59458;SDS011;45269;43.568;22.244;2022-09-27T10:30:56;7.43;;;5.68;;
59458;SDS011;45269;43.568;22.244;2022-09-27T10:33:22;10.88;;;7.68;;
59458;SDS011;45269;43.568;22.244;2022-09-27T10:35:47;12.05;;;8.98;;
59458;SDS011;45269;43.568;22.244;2022-09-27T10:40:41;53.55;;;42.45;;
59458;SDS011;45269;43.568;22.244;2022-09-27T10:48:28;16.55;;;13.45;;
59458;SDS011;45269;43.568;22.244;2022-09-27T10:50:55;19.10;;;16.73;;
59458;SDS011;45269;43.568;22.244;2022-09-27T10:53:20;26.40;;;21.77;;
59458;SDS011;45269;43.568;22.244;2022-09-27T10:55:46;17.50;;;15.25;;
59458;SDS011;45269;43.568;22.244;2022-09-27T10:58:17;12.63;;;10.65;;
59458;SDS011;45269;43.568;22.244;2022-09-27T11:00:43;10.18;;;8.38;;
59458;SDS011;45269;43.568;22.244;2022-09-27T11:03:18;10.73;;;8.80;;
59458;SDS011;45269;43.568;22.244;2022-09-27T11:05:43;27.42;;;21.58;;
59458;SDS011;45269;43.568;22.244;2022-09-27T11:10:43;63.95;;;45.05;;
59458;SDS011;45269;43.568;22.244;2022-09-27T11:13:12;61.25;;;46.42;;
59458;SDS011;45269;43.568;22.244;2022-09-27T11:15:51;84.72;;;63.47;;
59458;SDS011;45269;43.568;22.244;2022-09-27T11:23:56;43.83;;;37.97;;
59458;SDS011;45269;43.568;22.244;2022-09-27T11:26:35;32.10;;;26.98;;
59458;SDS011;45269;43.568;22.244;2022-09-27T11:29:06;14.82;;;13.20;;
59458;SDS011;45269;43.568;22.244;2022-09-27T11:32:10;7.40;;;6.75;;
59458;SDS011;45269;43.568;22.244;2022-09-27T11:34:42;7.55;;;6.45;;
59458;SDS011;45269;43.568;22.244;2022-09-27T11:42:23;342.98;;;243.30;;
59458;SDS011;45269;43.568;22.244;2022-09-27T11:45:09;140.25;;;94.75;;
59458;SDS011;45269;43.568;22.244;2022-09-27T11:47:42;85.88;;;63.33;;
59458;SDS011;45269;43.568;22.244;2022-09-27T11:50:35;24.10;;;21.50;;
59458;SDS011;45269;43.568;22.244;2022-09-27T12:03:41;6.78;;;6.03;;
59458;SDS011;45269;43.568;22.244;2022-09-27T12:08:55;7.90;;;5.45;;
59458;SDS011;45269;43.568;22.244;2022-09-27T12:11:42;26.60;;;18.63;;
59458;SDS011;45269;43.568;22.244;2022-09-27T12:16:53;3.33;;;2.80;;
59458;SDS011;45269;43.568;22.244;2022-09-27T12:19:31;12.02;;;2.80;;
59458;SDS011;45269;43.568;22.244;2022-09-27T12:22:00;4.97;;;2.25;;
59458;SDS011;45269;43.568;22.244;2022-09-27T12:24:27;5.30;;;4.80;;
59458;SDS011;45269;43.568;22.244;2022-09-27T12:26:57;4.45;;;2.42;;
59458;SDS011;45269;43.568;22.244;2022-09-27T12:29:25;3.17;;;2.65;;
59458;SDS011;45269;43.568;22.244;2022-09-27T12:31:58;3.05;;;2.72;;
59458;SDS011;45269;43.568;22.244;2022-09-27T12:37:23;5.13;;;4.10;;
59458;SDS011;45269;43.568;22.244;2022-09-27T12:39:53;4.97;;;4.55;;
59458;SDS011;45269;43.568;22.244;2022-09-27T12:42:24;10.43;;;9.33;;
59458;SDS011;45269;43.568;22.244;2022-09-27T12:44:49;14.00;;;10.52;;
59458;SDS011;45269;43.568;22.244;2022-09-27T12:47:22;3.65;;;2.53;;
59458;SDS011;45269;43.568;22.244;2022-09-27T12:52:16;6.78;;;2.63;;
59458;SDS011;45269;43.568;22.244;2022-09-27T13:04:56;20.50;;;16.38;;
59458;SDS011;45269;43.568;22.244;2022-09-27T13:07:33;22.48;;;18.55;;
59458;SDS011;45269;43.568;22.244;2022-09-27T13:12:29;11.63;;;8.70;;
59458;SDS011;45269;43.568;22.244;2022-09-27T13:23:00;6.30;;;4.32;;
59458;SDS011;45269;43.568;22.244;2022-09-27T13:38:28;3.50;;;3.20;;
59458;SDS011;45269;43.568;22.244;2022-09-27T13:40:54;5.20;;;3.75;;
59458;SDS011;45269;43.568;22.244;2022-09-27T13:46:03;4.63;;;3.67;;
59458;SDS011;45269;43.568;22.244;2022-09-27T13:59:13;11.27;;;9.13;;
59458;SDS011;45269;43.568;22.244;2022-09-27T14:01:48;6.43;;;5.80;;
59458;SDS011;45269;43.568;22.244;2022-09-27T14:06:50;3.40;;;3.10;;
59458;SDS011;45269;43.568;22.244;2022-09-27T14:09:22;4.13;;;3.15;;
59458;SDS011;45269;43.568;22.244;2022-09-27T14:11:50;3.40;;;2.97;;
59458;SDS011;45269;43.568;22.244;2022-09-27T14:14:18;5.28;;;4.28;;
59458;SDS011;45269;43.568;22.244;2022-09-27T14:16:44;3.83;;;3.53;;
59458;SDS011;45269;43.568;22.244;2022-09-27T14:19:15;6.63;;;3.40;;
59458;SDS011;45269;43.568;22.244;2022-09-27T14:21:42;6.80;;;5.22;;
59458;SDS011;45269;43.568;22.244;2022-09-27T14:27:13;6.82;;;6.25;;
59458;SDS011;45269;43.568;22.244;2022-09-27T14:29:50;5.88;;;5.30;;
59458;SDS011;45269;43.568;22.244;2022-09-27T14:32:21;5.10;;;4.57;;
59458;SDS011;45269;43.568;22.244;2022-09-27T14:37:51;5.68;;;5.07;;
59458;SDS011;45269;43.568;22.244;2022-09-27T14:40:20;4.25;;;3.20;;
59458;SDS011;45269;43.568;22.244;2022-09-27T14:42:46;5.75;;;5.18;;
59458;SDS011;45269;43.568;22.244;2022-09-27T14:45:27;2.92;;;2.63;;
59458;SDS011;45269;43.568;22.244;2022-09-27T14:47:55;7.10;;;6.40;;
59458;SDS011;45269;43.568;22.244;2022-09-27T14:50:23;4.25;;;3.60;;
59458;SDS011;45269;43.568;22.244;2022-09-27T14:52:49;4.65;;;3.28;;
59458;SDS011;45269;43.568;22.244;2022-09-27T14:55:20;3.22;;;2.90;;
59458;SDS011;45269;43.568;22.244;2022-09-27T14:57:48;3.30;;;3.00;;
59458;SDS011;45269;43.568;22.244;2022-09-27T15:00:34;3.10;;;2.78;;
59458;SDS011;45269;43.568;22.244;2022-09-27T15:03:02;2.80;;;2.45;;
59458;SDS011;45269;43.568;22.244;2022-09-27T15:05:32;7.22;;;4.28;;
59458;SDS011;45269;43.568;22.244;2022-09-27T15:07:59;5.07;;;3.00;;
59458;SDS011;45269;43.568;22.244;2022-09-27T15:10:27;4.25;;;2.15;;
59458;SDS011;45269;43.568;22.244;2022-09-27T15:12:55;5.32;;;3.58;;
59458;SDS011;45269;43.568;22.244;2022-09-27T15:15:26;3.83;;;3.20;;
59458;SDS011;45269;43.568;22.244;2022-09-27T15:17:55;6.18;;;3.42;;
59458;SDS011;45269;43.568;22.244;2022-09-27T15:22:55;3.22;;;2.92;;
59458;SDS011;45269;43.568;22.244;2022-09-27T15:30:36;10.18;;;3.25;;
59458;SDS011;45269;43.568;22.244;2022-09-27T15:33:02;4.95;;;3.55;;
59458;SDS011;45269;43.568;22.244;2022-09-27T15:35:29;3.05;;;2.28;;
59458;SDS011;45269;43.568;22.244;2022-09-27T15:38:15;4.55;;;2.33;;
59458;SDS011;45269;43.568;22.244;2022-09-27T15:45:49;3.00;;;2.53;;
59458;SDS011;45269;43.568;22.244;2022-09-27T15:48:16;5.38;;;2.95;;
59458;SDS011;45269;43.568;22.244;2022-09-27T15:50:42;4.28;;;2.92;;
59458;SDS011;45269;43.568;22.244;2022-09-27T15:53:08;6.47;;;5.68;;
59458;SDS011;45269;43.568;22.244;2022-09-27T15:55:34;3.03;;;2.47;;
59458;SDS011;45269;43.568;22.244;2022-09-27T15:58:04;4.15;;;2.95;;
59458;SDS011;45269;43.568;22.244;2022-09-27T16:00:30;4.68;;;2.40;;
59458;SDS011;45269;43.568;22.244;2022-09-27T16:02:56;6.68;;;4.40;;
59458;SDS011;45269;43.568;22.244;2022-09-27T16:05:21;18.45;;;11.32;;
59458;SDS011;45269;43.568;22.244;2022-09-27T16:07:51;14.05;;;9.15;;
59458;SDS011;45269;43.568;22.244;2022-09-27T16:10:17;8.25;;;2.88;;
59458;SDS011;45269;43.568;22.244;2022-09-27T16:12:43;5.47;;;3.00;;
59458;SDS011;45269;43.568;22.244;2022-09-27T16:15:12;7.65;;;3.25;;
59458;SDS011;45269;43.568;22.244;2022-09-27T16:17:38;8.82;;;4.93;;
59458;SDS011;45269;43.568;22.244;2022-09-27T16:20:06;8.05;;;5.75;;
59458;SDS011;45269;43.568;22.244;2022-09-27T16:22:33;10.15;;;9.07;;
59458;SDS011;45269;43.568;22.244;2022-09-27T16:24:59;8.02;;;6.20;;
59458;SDS011;45269;43.568;22.244;2022-09-27T16:27:25;27.25;;;21.67;;
59458;SDS011;45269;43.568;22.244;2022-09-27T16:29:54;14.13;;;10.10;;
59458;SDS011;45269;43.568;22.244;2022-09-27T16:32:21;13.20;;;10.73;;
59458;SDS011;45269;43.568;22.244;2022-09-27T16:34:47;8.00;;;6.93;;
59458;SDS011;45269;43.568;22.244;2022-09-27T16:37:12;3.15;;;2.85;;
59458;SDS011;45269;43.568;22.244;2022-09-27T16:39:38;16.60;;;10.43;;
59458;SDS011;45269;43.568;22.244;2022-09-27T16:42:04;14.18;;;9.80;;
59458;SDS011;45269;43.568;22.244;2022-09-27T16:44:31;10.32;;;8.27;;
59458;SDS011;45269;43.568;22.244;2022-09-27T16:47:02;16.87;;;12.47;;
59458;SDS011;45269;43.568;22.244;2022-09-27T16:49:28;15.05;;;11.68;;
59458;SDS011;45269;43.568;22.244;2022-09-27T16:52:12;23.63;;;19.63;;
59458;SDS011;45269;43.568;22.244;2022-09-27T16:54:37;12.75;;;10.57;;
59458;SDS011;45269;43.568;22.244;2022-09-27T16:57:03;15.45;;;13.85;;
59458;SDS011;45269;43.568;22.244;2022-09-27T16:59:28;13.52;;;12.13;;
59458;SDS011;45269;43.568;22.244;2022-09-27T17:01:54;19.60;;;14.15;;
59458;SDS011;45269;43.568;22.244;2022-09-27T17:04:26;10.80;;;9.70;;
59458;SDS011;45269;43.568;22.244;2022-09-27T17:09:16;46.87;;;26.10;;
59458;SDS011;45269;43.568;22.244;2022-09-27T17:11:42;65.18;;;34.38;;
59458;SDS011;45269;43.568;22.244;2022-09-27T17:14:11;81.10;;;40.50;;
59458;SDS011;45269;43.568;22.244;2022-09-27T17:16:41;79.90;;;43.22;;
59458;SDS011;45269;43.568;22.244;2022-09-27T17:19:07;50.85;;;30.42;;
59458;SDS011;45269;43.568;22.244;2022-09-27T17:21:32;75.60;;;53.88;;
59458;SDS011;45269;43.568;22.244;2022-09-27T17:23:59;46.03;;;35.05;;
59458;SDS011;45269;43.568;22.244;2022-09-27T17:26:25;54.50;;;40.47;;
59458;SDS011;45269;43.568;22.244;2022-09-27T17:28:54;31.85;;;28.27;;
59458;SDS011;45269;43.568;22.244;2022-09-27T17:31:21;27.90;;;23.05;;
59458;SDS011;45269;43.568;22.244;2022-09-27T17:33:48;29.92;;;21.67;;
59458;SDS011;45269;43.568;22.244;2022-09-27T17:36:19;30.67;;;20.88;;
59458;SDS011;45269;43.568;22.244;2022-09-27T17:38:47;28.48;;;19.42;;
59458;SDS011;45269;43.568;22.244;2022-09-27T17:41:14;37.88;;;24.58;;
59458;SDS011;45269;43.568;22.244;2022-09-27T17:43:40;22.50;;;15.93;;
59458;SDS011;45269;43.568;22.244;2022-09-27T17:46:15;17.55;;;13.43;;
59458;SDS011;45269;43.568;22.244;2022-09-27T17:48:41;17.27;;;14.60;;
59458;SDS011;45269;43.568;22.244;2022-09-27T17:51:25;15.35;;;8.98;;